sensor_id;sensor_type;location;lat;lon;timestamp;P1;P4;P2;P0;N10;N4;N25;N1;N05;TS
62702;SPS30;66022;50.448;18.122;2023-03-14T00:02:52;17.34;;15.76;;;;;;;
62702;SPS30;66022;50.448;18.122;2023-03-14T00:07:05;17.34;;15.76;;;;;;;
62702;SPS30;66022;50.448;18.122;2023-03-14T00:11:19;12.64;;11.61;;;;;;;
62702;SPS30;66022;50.448;18.122;2023-03-14T00:15:33;12.64;;11.61;;;;;;;
62702;SPS30;66022;50.448;18.122;2023-03-14T00:19:47;8.69;;8.57;;;;;;;
62702;SPS30;66022;50.448;18.122;2023-03-14T00:24:01;8.69;;8.57;;;;;;;
62702;SPS30;66022;50.448;18.122;2023-03-14T00:28:15;8.69;;8.57;;;;;;;
62702;SPS30;66022;50.448;18.122;2023-03-14T00:32:29;7.96;;7.33;;;;;;;
62702;SPS30;66022;50.448;18.122;2023-03-14T00:36:44;7.96;;7.33;;;;;;;
62702;SPS30;66022;50.448;18.122;2023-03-14T00:40:57;7.77;;7.00;;;;;;;
62702;SPS30;66022;50.448;18.122;2023-03-14T00:45:11;7.77;;7.00;;;;;;;
62702;SPS30;66022;50.448;18.122;2023-03-14T00:49:25;11.16;;10.26;;;;;;;
62702;SPS30;66022;50.448;18.122;2023-03-14T00:53:39;11.16;;10.26;;;;;;;
62702;SPS30;66022;50.448;18.122;2023-03-14T00:57:53;11.16;;10.26;;;;;;;
62702;SPS30;66022;50.448;18.122;2023-03-14T01:02:07;6.92;;6.62;;;;;;;
62702;SPS30;66022;50.448;18.122;2023-03-14T01:06:25;6.92;;6.62;;;;;;;
62702;SPS30;66022;50.448;18.122;2023-03-14T01:10:40;8.21;;8.07;;;;;;;
62702;SPS30;66022;50.448;18.122;2023-03-14T01:14:51;8.21;;8.07;;;;;;;
62702;SPS30;66022;50.448;18.122;2023-03-14T01:19:03;8.21;;8.07;;;;;;;
62702;SPS30;66022;50.448;18.122;2023-03-14T01:23:17;7.99;;7.75;;;;;;;
62702;SPS30;66022;50.448;18.122;2023-03-14T01:27:31;7.99;;7.75;;;;;;;
62702;SPS30;66022;50.448;18.122;2023-03-14T01:31:45;8.76;;8.00;;;;;;;
62702;SPS30;66022;50.448;18.122;2023-03-14T01:35:59;8.76;;8.00;;;;;;;
62702;SPS30;66022;50.448;18.122;2023-03-14T01:40:13;10.80;;10.63;;;;;;;
62702;SPS30;66022;50.448;18.122;2023-03-14T01:44:27;10.80;;10.63;;;;;;;
62702;SPS30;66022;50.448;18.122;2023-03-14T01:52:55;6.78;;6.55;;;;;;;
62702;SPS30;66022;50.448;18.122;2023-03-14T02:01:23;5.68;;5.68;;;;;;;
62702;SPS30;66022;50.448;18.122;2023-03-14T02:05:38;5.68;;5.68;;;;;;;
62702;SPS30;66022;50.448;18.122;2023-03-14T02:09:51;6.28;;5.89;;;;;;;
62702;SPS30;66022;50.448;18.122;2023-03-14T02:14:05;6.28;;5.89;;;;;;;
62702;SPS30;66022;50.448;18.122;2023-03-14T02:18:19;6.28;;5.89;;;;;;;
62702;SPS30;66022;50.448;18.122;2023-03-14T02:22:33;9.68;;8.44;;;;;;;
62702;SPS30;66022;50.448;18.122;2023-03-14T02:31:01;8.60;;8.05;;;;;;;
62702;SPS30;66022;50.448;18.122;2023-03-14T02:35:20;8.60;;8.05;;;;;;;
62702;SPS30;66022;50.448;18.122;2023-03-14T02:39:33;8.49;;7.28;;;;;;;
62702;SPS30;66022;50.448;18.122;2023-03-14T02:43:43;8.49;;7.28;;;;;;;
62702;SPS30;66022;50.448;18.122;2023-03-14T02:47:59;8.49;;7.28;;;;;;;
62702;SPS30;66022;50.448;18.122;2023-03-14T02:52:11;6.65;;6.65;;;;;;;
62702;SPS30;66022;50.448;18.122;2023-03-14T02:56:25;6.65;;6.65;;;;;;;
62702;SPS30;66022;50.448;18.122;2023-03-14T03:00:39;8.06;;7.23;;;;;;;
62702;SPS30;66022;50.448;18.122;2023-03-14T03:04:53;8.06;;7.23;;;;;;;
62702;SPS30;66022;50.448;18.122;2023-03-14T03:09:07;8.06;;7.23;;;;;;;
62702;SPS30;66022;50.448;18.122;2023-03-14T03:13:21;4.95;;4.95;;;;;;;
62702;SPS30;66022;50.448;18.122;2023-03-14T03:17:35;4.95;;4.95;;;;;;;
62702;SPS30;66022;50.448;18.122;2023-03-14T03:21:49;5.19;;5.19;;;;;;;
62702;SPS30;66022;50.448;18.122;2023-03-14T03:26:03;5.19;;5.19;;;;;;;
62702;SPS30;66022;50.448;18.122;2023-03-14T03:30:17;5.57;;5.57;;;;;;;
62702;SPS30;66022;50.448;18.122;2023-03-14T03:34:31;5.57;;5.57;;;;;;;
62702;SPS30;66022;50.448;18.122;2023-03-14T03:38:45;5.57;;5.57;;;;;;;
62702;SPS30;66022;50.448;18.122;2023-03-14T03:42:59;6.51;;6.30;;;;;;;
62702;SPS30;66022;50.448;18.122;2023-03-14T03:47:13;6.51;;6.30;;;;;;;
62702;SPS30;66022;50.448;18.122;2023-03-14T03:51:27;5.91;;5.91;;;;;;;
62702;SPS30;66022;50.448;18.122;2023-03-14T03:55:41;5.91;;5.91;;;;;;;
62702;SPS30;66022;50.448;18.122;2023-03-14T03:59:55;6.41;;6.16;;;;;;;
62702;SPS30;66022;50.448;18.122;2023-03-14T04:04:09;6.41;;6.16;;;;;;;
62702;SPS30;66022;50.448;18.122;2023-03-14T04:08:23;6.41;;6.16;;;;;;;
62702;SPS30;66022;50.448;18.122;2023-03-14T04:12:37;8.42;;8.42;;;;;;;
62702;SPS30;66022;50.448;18.122;2023-03-14T04:16:51;8.42;;8.42;;;;;;;
62702;SPS30;66022;50.448;18.122;2023-03-14T04:21:05;20.08;;15.50;;;;;;;
62702;SPS30;66022;50.448;18.122;2023-03-14T04:25:19;20.08;;15.50;;;;;;;
62702;SPS30;66022;50.448;18.122;2023-03-14T04:29:33;6.62;;6.62;;;;;;;
62702;SPS30;66022;50.448;18.122;2023-03-14T04:33:47;6.62;;6.62;;;;;;;
62702;SPS30;66022;50.448;18.122;2023-03-14T04:38:01;6.62;;6.62;;;;;;;
62702;SPS30;66022;50.448;18.122;2023-03-14T04:42:15;6.99;;6.55;;;;;;;
62702;SPS30;66022;50.448;18.122;2023-03-14T04:46:29;6.99;;6.55;;;;;;;
62702;SPS30;66022;50.448;18.122;2023-03-14T04:50:43;6.38;;6.38;;;;;;;
62702;SPS30;66022;50.448;18.122;2023-03-14T04:54:57;6.38;;6.38;;;;;;;
62702;SPS30;66022;50.448;18.122;2023-03-14T04:59:12;6.38;;6.38;;;;;;;
62702;SPS30;66022;50.448;18.122;2023-03-14T05:03:25;10.85;;10.85;;;;;;;
62702;SPS30;66022;50.448;18.122;2023-03-14T05:07:39;10.85;;10.85;;;;;;;
62702;SPS30;66022;50.448;18.122;2023-03-14T05:11:53;12.32;;11.68;;;;;;;
62702;SPS30;66022;50.448;18.122;2023-03-14T05:16:08;12.32;;11.68;;;;;;;
62702;SPS30;66022;50.448;18.122;2023-03-14T05:20:21;7.65;;7.52;;;;;;;
62702;SPS30;66022;50.448;18.122;2023-03-14T05:24:35;7.65;;7.52;;;;;;;
62702;SPS30;66022;50.448;18.122;2023-03-14T05:28:49;7.65;;7.52;;;;;;;
62702;SPS30;66022;50.448;18.122;2023-03-14T05:33:03;7.03;;6.83;;;;;;;
62702;SPS30;66022;50.448;18.122;2023-03-14T05:37:17;7.03;;6.83;;;;;;;
62702;SPS30;66022;50.448;18.122;2023-03-14T05:41:31;7.74;;7.46;;;;;;;
62702;SPS30;66022;50.448;18.122;2023-03-14T05:45:45;7.74;;7.46;;;;;;;
62702;SPS30;66022;50.448;18.122;2023-03-14T05:50:07;8.79;;8.02;;;;;;;
62702;SPS30;66022;50.448;18.122;2023-03-14T05:54:14;8.79;;8.02;;;;;;;
62702;SPS30;66022;50.448;18.122;2023-03-14T05:58:29;8.79;;8.02;;;;;;;
62702;SPS30;66022;50.448;18.122;2023-03-14T06:02:41;7.59;;7.44;;;;;;;
62702;SPS30;66022;50.448;18.122;2023-03-14T06:06:56;7.59;;7.44;;;;;;;
62702;SPS30;66022;50.448;18.122;2023-03-14T06:11:09;9.20;;8.74;;;;;;;
62702;SPS30;66022;50.448;18.122;2023-03-14T06:15:23;9.20;;8.74;;;;;;;
62702;SPS30;66022;50.448;18.122;2023-03-14T06:19:38;8.54;;8.54;;;;;;;
62702;SPS30;66022;50.448;18.122;2023-03-14T06:23:51;8.54;;8.54;;;;;;;
62702;SPS30;66022;50.448;18.122;2023-03-14T06:28:05;8.54;;8.54;;;;;;;
62702;SPS30;66022;50.448;18.122;2023-03-14T06:32:19;9.68;;9.20;;;;;;;
62702;SPS30;66022;50.448;18.122;2023-03-14T06:36:33;9.68;;9.20;;;;;;;
62702;SPS30;66022;50.448;18.122;2023-03-14T06:40:47;7.28;;7.28;;;;;;;
62702;SPS30;66022;50.448;18.122;2023-03-14T06:45:01;7.28;;7.28;;;;;;;
62702;SPS30;66022;50.448;18.122;2023-03-14T06:49:15;7.28;;7.28;;;;;;;
62702;SPS30;66022;50.448;18.122;2023-03-14T06:53:29;11.35;;9.94;;;;;;;
62702;SPS30;66022;50.448;18.122;2023-03-14T06:57:43;11.35;;9.94;;;;;;;
62702;SPS30;66022;50.448;18.122;2023-03-14T07:01:57;11.35;;10.18;;;;;;;
62702;SPS30;66022;50.448;18.122;2023-03-14T07:06:11;11.35;;10.18;;;;;;;
62702;SPS30;66022;50.448;18.122;2023-03-14T07:10:25;9.05;;9.05;;;;;;;
62702;SPS30;66022;50.448;18.122;2023-03-14T07:14:39;9.05;;9.05;;;;;;;
62702;SPS30;66022;50.448;18.122;2023-03-14T07:18:53;9.05;;9.05;;;;;;;
62702;SPS30;66022;50.448;18.122;2023-03-14T07:23:07;7.64;;7.53;;;;;;;
62702;SPS30;66022;50.448;18.122;2023-03-14T07:27:22;7.64;;7.53;;;;;;;
62702;SPS30;66022;50.448;18.122;2023-03-14T07:31:35;8.18;;8.01;;;;;;;
62702;SPS30;66022;50.448;18.122;2023-03-14T07:35:49;8.18;;8.01;;;;;;;
62702;SPS30;66022;50.448;18.122;2023-03-14T07:40:04;8.63;;8.21;;;;;;;
62702;SPS30;66022;50.448;18.122;2023-03-14T07:44:17;8.63;;8.21;;;;;;;
62702;SPS30;66022;50.448;18.122;2023-03-14T07:48:31;8.63;;8.21;;;;;;;
62702;SPS30;66022;50.448;18.122;2023-03-14T07:52:45;8.26;;8.11;;;;;;;
62702;SPS30;66022;50.448;18.122;2023-03-14T07:56:59;8.26;;8.11;;;;;;;
62702;SPS30;66022;50.448;18.122;2023-03-14T08:01:13;10.43;;10.16;;;;;;;
62702;SPS30;66022;50.448;18.122;2023-03-14T08:05:27;10.43;;10.16;;;;;;;
62702;SPS30;66022;50.448;18.122;2023-03-14T08:09:41;8.04;;7.87;;;;;;;
62702;SPS30;66022;50.448;18.122;2023-03-14T08:13:55;8.04;;7.87;;;;;;;
62702;SPS30;66022;50.448;18.122;2023-03-14T08:18:09;8.04;;7.87;;;;;;;
62702;SPS30;66022;50.448;18.122;2023-03-14T08:22:23;6.96;;6.96;;;;;;;
62702;SPS30;66022;50.448;18.122;2023-03-14T08:26:37;6.96;;6.96;;;;;;;
62702;SPS30;66022;50.448;18.122;2023-03-14T08:30:51;5.96;;5.96;;;;;;;
62702;SPS30;66022;50.448;18.122;2023-03-14T08:35:05;5.96;;5.96;;;;;;;
62702;SPS30;66022;50.448;18.122;2023-03-14T08:39:19;7.03;;7.03;;;;;;;
62702;SPS30;66022;50.448;18.122;2023-03-14T08:43:33;7.03;;7.03;;;;;;;
62702;SPS30;66022;50.448;18.122;2023-03-14T08:47:47;7.03;;7.03;;;;;;;
62702;SPS30;66022;50.448;18.122;2023-03-14T08:52:02;9.46;;8.62;;;;;;;
62702;SPS30;66022;50.448;18.122;2023-03-14T08:56:15;9.46;;8.62;;;;;;;
62702;SPS30;66022;50.448;18.122;2023-03-14T09:00:29;7.65;;7.65;;;;;;;
62702;SPS30;66022;50.448;18.122;2023-03-14T09:04:43;7.65;;7.65;;;;;;;
62702;SPS30;66022;50.448;18.122;2023-03-14T09:08:57;7.65;;7.65;;;;;;;
62702;SPS30;66022;50.448;18.122;2023-03-14T09:13:11;7.26;;7.11;;;;;;;
62702;SPS30;66022;50.448;18.122;2023-03-14T09:17:25;7.26;;7.11;;;;;;;
62702;SPS30;66022;50.448;18.122;2023-03-14T09:21:39;6.69;;6.69;;;;;;;
62702;SPS30;66022;50.448;18.122;2023-03-14T09:25:54;6.69;;6.69;;;;;;;
62702;SPS30;66022;50.448;18.122;2023-03-14T09:30:08;6.44;;6.34;;;;;;;
62702;SPS30;66022;50.448;18.122;2023-03-14T09:34:22;6.44;;6.34;;;;;;;
62702;SPS30;66022;50.448;18.122;2023-03-14T09:38:35;6.44;;6.34;;;;;;;
62702;SPS30;66022;50.448;18.122;2023-03-14T09:42:52;10.68;;9.43;;;;;;;
62702;SPS30;66022;50.448;18.122;2023-03-14T09:47:05;10.68;;9.43;;;;;;;
62702;SPS30;66022;50.448;18.122;2023-03-14T09:51:18;6.95;;6.90;;;;;;;
62702;SPS30;66022;50.448;18.122;2023-03-14T09:55:32;6.95;;6.90;;;;;;;
62702;SPS30;66022;50.448;18.122;2023-03-14T09:59:46;9.00;;8.27;;;;;;;
62702;SPS30;66022;50.448;18.122;2023-03-14T10:04:04;9.00;;8.27;;;;;;;
62702;SPS30;66022;50.448;18.122;2023-03-14T10:08:14;9.00;;8.27;;;;;;;
62702;SPS30;66022;50.448;18.122;2023-03-14T10:16:45;7.87;;7.87;;;;;;;
62702;SPS30;66022;50.448;18.122;2023-03-14T10:25:10;11.45;;10.26;;;;;;;
62702;SPS30;66022;50.448;18.122;2023-03-14T10:29:24;10.73;;10.01;;;;;;;
62702;SPS30;66022;50.448;18.122;2023-03-14T10:33:40;10.73;;10.01;;;;;;;
62702;SPS30;66022;50.448;18.122;2023-03-14T10:42:24;12.52;;11.54;;;;;;;
62702;SPS30;66022;50.448;18.122;2023-03-14T10:46:20;12.52;;11.54;;;;;;;
62702;SPS30;66022;50.448;18.122;2023-03-14T10:50:34;14.37;;13.40;;;;;;;
62702;SPS30;66022;50.448;18.122;2023-03-14T10:59:02;14.37;;13.40;;;;;;;
62702;SPS30;66022;50.448;18.122;2023-03-14T11:03:16;11.47;;10.92;;;;;;;
62702;SPS30;66022;50.448;18.122;2023-03-14T11:07:38;11.47;;10.92;;;;;;;
62702;SPS30;66022;50.448;18.122;2023-03-14T11:11:45;8.80;;8.80;;;;;;;
62702;SPS30;66022;50.448;18.122;2023-03-14T11:28:41;16.12;;14.65;;;;;;;
62702;SPS30;66022;50.448;18.122;2023-03-14T11:41:27;11.89;;11.33;;;;;;;
62702;SPS30;66022;50.448;18.122;2023-03-14T11:45:36;11.89;;11.33;;;;;;;
62702;SPS30;66022;50.448;18.122;2023-03-14T11:49:51;15.43;;14.95;;;;;;;
62702;SPS30;66022;50.448;18.122;2023-03-14T12:06:49;11.84;;11.60;;;;;;;
62702;SPS30;66022;50.448;18.122;2023-03-14T12:11:01;15.46;;13.47;;;;;;;
62702;SPS30;66022;50.448;18.122;2023-03-14T12:19:29;11.87;;11.72;;;;;;;
62702;SPS30;66022;50.448;18.122;2023-03-14T12:23:43;11.87;;11.72;;;;;;;
62702;SPS30;66022;50.448;18.122;2023-03-14T12:40:51;22.13;;19.73;;;;;;;
62702;SPS30;66022;50.448;18.122;2023-03-14T12:44:52;22.13;;19.73;;;;;;;
62702;SPS30;66022;50.448;18.122;2023-03-14T12:49:07;22.13;;19.73;;;;;;;
62702;SPS30;66022;50.448;18.122;2023-03-14T13:01:53;18.87;;18.57;;;;;;;
62702;SPS30;66022;50.448;18.122;2023-03-14T13:06:02;18.87;;18.57;;;;;;;
62702;SPS30;66022;50.448;18.122;2023-03-14T13:10:18;14.69;;14.69;;;;;;;
62702;SPS30;66022;50.448;18.122;2023-03-14T13:14:30;14.69;;14.69;;;;;;;
62702;SPS30;66022;50.448;18.122;2023-03-14T13:18:50;14.69;;14.69;;;;;;;
62702;SPS30;66022;50.448;18.122;2023-03-14T13:22:58;14.86;;14.84;;;;;;;
62702;SPS30;66022;50.448;18.122;2023-03-14T13:31:26;15.16;;14.68;;;;;;;
62702;SPS30;66022;50.448;18.122;2023-03-14T13:35:42;15.16;;14.68;;;;;;;
62702;SPS30;66022;50.448;18.122;2023-03-14T13:39:56;14.99;;14.64;;;;;;;
62702;SPS30;66022;50.448;18.122;2023-03-14T13:44:12;14.99;;14.64;;;;;;;
62702;SPS30;66022;50.448;18.122;2023-03-14T13:48:22;14.99;;14.64;;;;;;;
62702;SPS30;66022;50.448;18.122;2023-03-14T13:52:36;13.46;;13.46;;;;;;;
62702;SPS30;66022;50.448;18.122;2023-03-14T13:56:58;13.46;;13.46;;;;;;;
62702;SPS30;66022;50.448;18.122;2023-03-14T14:05:18;12.35;;12.17;;;;;;;
62702;SPS30;66022;50.448;18.122;2023-03-14T14:13:46;12.59;;11.84;;;;;;;
62702;SPS30;66022;50.448;18.122;2023-03-14T14:18:01;12.59;;11.84;;;;;;;
62702;SPS30;66022;50.448;18.122;2023-03-14T14:22:14;8.92;;8.92;;;;;;;
62702;SPS30;66022;50.448;18.122;2023-03-14T14:26:28;8.92;;8.92;;;;;;;
62702;SPS30;66022;50.448;18.122;2023-03-14T14:30:42;12.86;;12.12;;;;;;;
62702;SPS30;66022;50.448;18.122;2023-03-14T14:35:00;12.86;;12.12;;;;;;;
62702;SPS30;66022;50.448;18.122;2023-03-14T14:43:25;10.77;;10.60;;;;;;;
62702;SPS30;66022;50.448;18.122;2023-03-14T14:47:47;10.77;;10.60;;;;;;;
62702;SPS30;66022;50.448;18.122;2023-03-14T14:52:00;10.98;;10.48;;;;;;;
62702;SPS30;66022;50.448;18.122;2023-03-14T14:56:27;10.98;;10.48;;;;;;;
62702;SPS30;66022;50.448;18.122;2023-03-14T15:00:21;9.40;;9.40;;;;;;;
62702;SPS30;66022;50.448;18.122;2023-03-14T15:04:34;9.40;;9.40;;;;;;;
62702;SPS30;66022;50.448;18.122;2023-03-14T15:08:49;9.40;;9.40;;;;;;;
62702;SPS30;66022;50.448;18.122;2023-03-14T15:13:02;11.14;;10.25;;;;;;;
62702;SPS30;66022;50.448;18.122;2023-03-14T15:17:16;11.14;;10.25;;;;;;;
62702;SPS30;66022;50.448;18.122;2023-03-14T15:21:30;16.73;;16.51;;;;;;;
62702;SPS30;66022;50.448;18.122;2023-03-14T15:25:51;16.73;;16.51;;;;;;;
62702;SPS30;66022;50.448;18.122;2023-03-14T15:29:59;12.56;;12.27;;;;;;;
62702;SPS30;66022;50.448;18.122;2023-03-14T15:34:16;12.56;;12.27;;;;;;;
62702;SPS30;66022;50.448;18.122;2023-03-14T15:38:26;12.56;;12.27;;;;;;;
62702;SPS30;66022;50.448;18.122;2023-03-14T15:42:40;16.80;;15.92;;;;;;;
62702;SPS30;66022;50.448;18.122;2023-03-14T15:46:54;16.80;;15.92;;;;;;;
62702;SPS30;66022;50.448;18.122;2023-03-14T15:51:08;21.47;;19.67;;;;;;;
62702;SPS30;66022;50.448;18.122;2023-03-14T15:55:23;21.47;;19.67;;;;;;;
62702;SPS30;66022;50.448;18.122;2023-03-14T15:59:36;10.66;;10.66;;;;;;;
62702;SPS30;66022;50.448;18.122;2023-03-14T16:03:51;10.66;;10.66;;;;;;;
62702;SPS30;66022;50.448;18.122;2023-03-14T16:08:04;10.66;;10.66;;;;;;;
62702;SPS30;66022;50.448;18.122;2023-03-14T16:12:18;13.73;;13.17;;;;;;;
62702;SPS30;66022;50.448;18.122;2023-03-14T16:16:32;13.73;;13.17;;;;;;;
62702;SPS30;66022;50.448;18.122;2023-03-14T16:25:01;13.06;;12.67;;;;;;;
62702;SPS30;66022;50.448;18.122;2023-03-14T16:29:14;13.06;;12.67;;;;;;;
62702;SPS30;66022;50.448;18.122;2023-03-14T16:33:28;9.64;;9.64;;;;;;;
62702;SPS30;66022;50.448;18.122;2023-03-14T16:37:42;9.64;;9.64;;;;;;;
62702;SPS30;66022;50.448;18.122;2023-03-14T16:41:56;14.03;;13.91;;;;;;;
62702;SPS30;66022;50.448;18.122;2023-03-14T16:46:11;14.03;;13.91;;;;;;;
62702;SPS30;66022;50.448;18.122;2023-03-14T16:50:24;9.74;;9.08;;;;;;;
62702;SPS30;66022;50.448;18.122;2023-03-14T16:54:38;9.74;;9.08;;;;;;;
62702;SPS30;66022;50.448;18.122;2023-03-14T16:58:52;9.74;;9.08;;;;;;;
62702;SPS30;66022;50.448;18.122;2023-03-14T17:03:06;9.73;;8.94;;;;;;;
62702;SPS30;66022;50.448;18.122;2023-03-14T17:07:20;9.73;;8.94;;;;;;;
62702;SPS30;66022;50.448;18.122;2023-03-14T17:11:34;14.87;;14.50;;;;;;;
62702;SPS30;66022;50.448;18.122;2023-03-14T17:15:51;14.87;;14.50;;;;;;;
62702;SPS30;66022;50.448;18.122;2023-03-14T17:20:03;12.97;;12.47;;;;;;;
62702;SPS30;66022;50.448;18.122;2023-03-14T17:24:16;12.97;;12.47;;;;;;;
62702;SPS30;66022;50.448;18.122;2023-03-14T17:28:32;12.97;;12.47;;;;;;;
62702;SPS30;66022;50.448;18.122;2023-03-14T17:32:44;13.82;;13.19;;;;;;;
62702;SPS30;66022;50.448;18.122;2023-03-14T17:36:58;13.82;;13.19;;;;;;;
62702;SPS30;66022;50.448;18.122;2023-03-14T17:41:13;18.77;;18.29;;;;;;;
62702;SPS30;66022;50.448;18.122;2023-03-14T17:45:28;18.77;;18.29;;;;;;;
62702;SPS30;66022;50.448;18.122;2023-03-14T17:49:40;11.44;;10.28;;;;;;;
62702;SPS30;66022;50.448;18.122;2023-03-14T17:53:54;11.44;;10.28;;;;;;;
62702;SPS30;66022;50.448;18.122;2023-03-14T17:58:08;11.44;;10.28;;;;;;;
62702;SPS30;66022;50.448;18.122;2023-03-14T18:02:23;9.84;;9.52;;;;;;;
62702;SPS30;66022;50.448;18.122;2023-03-14T18:06:36;9.84;;9.52;;;;;;;
62702;SPS30;66022;50.448;18.122;2023-03-14T18:10:52;13.01;;12.27;;;;;;;
62702;SPS30;66022;50.448;18.122;2023-03-14T18:15:04;13.01;;12.27;;;;;;;
62702;SPS30;66022;50.448;18.122;2023-03-14T18:19:19;9.65;;9.65;;;;;;;
62702;SPS30;66022;50.448;18.122;2023-03-14T18:23:32;9.65;;9.65;;;;;;;
62702;SPS30;66022;50.448;18.122;2023-03-14T18:27:49;9.65;;9.65;;;;;;;
62702;SPS30;66022;50.448;18.122;2023-03-14T18:32:00;15.61;;13.98;;;;;;;
62702;SPS30;66022;50.448;18.122;2023-03-14T18:36:14;15.61;;13.98;;;;;;;
62702;SPS30;66022;50.448;18.122;2023-03-14T18:40:28;9.82;;9.82;;;;;;;
62702;SPS30;66022;50.448;18.122;2023-03-14T18:44:42;9.82;;9.82;;;;;;;
62702;SPS30;66022;50.448;18.122;2023-03-14T18:48:56;9.82;;9.82;;;;;;;
62702;SPS30;66022;50.448;18.122;2023-03-14T18:53:10;12.48;;11.53;;;;;;;
62702;SPS30;66022;50.448;18.122;2023-03-14T18:57:24;12.48;;11.53;;;;;;;
62702;SPS30;66022;50.448;18.122;2023-03-14T19:01:38;12.42;;12.10;;;;;;;
62702;SPS30;66022;50.448;18.122;2023-03-14T19:05:55;12.42;;12.10;;;;;;;
62702;SPS30;66022;50.448;18.122;2023-03-14T19:10:06;13.54;;12.95;;;;;;;
62702;SPS30;66022;50.448;18.122;2023-03-14T19:14:20;13.54;;12.95;;;;;;;
62702;SPS30;66022;50.448;18.122;2023-03-14T19:18:34;13.54;;12.95;;;;;;;
62702;SPS30;66022;50.448;18.122;2023-03-14T19:22:48;11.14;;11.14;;;;;;;
62702;SPS30;66022;50.448;18.122;2023-03-14T19:27:02;11.14;;11.14;;;;;;;
62702;SPS30;66022;50.448;18.122;2023-03-14T19:31:16;14.02;;13.63;;;;;;;
62702;SPS30;66022;50.448;18.122;2023-03-14T19:35:30;14.02;;13.63;;;;;;;
62702;SPS30;66022;50.448;18.122;2023-03-14T19:39:44;10.43;;10.09;;;;;;;
62702;SPS30;66022;50.448;18.122;2023-03-14T19:43:59;10.43;;10.09;;;;;;;
62702;SPS30;66022;50.448;18.122;2023-03-14T19:48:12;10.43;;10.09;;;;;;;
62702;SPS30;66022;50.448;18.122;2023-03-14T19:52:27;10.97;;10.97;;;;;;;
62702;SPS30;66022;50.448;18.122;2023-03-14T19:56:40;10.97;;10.97;;;;;;;
62702;SPS30;66022;50.448;18.122;2023-03-14T20:00:54;11.51;;11.08;;;;;;;
62702;SPS30;66022;50.448;18.122;2023-03-14T20:05:08;11.51;;11.08;;;;;;;
62702;SPS30;66022;50.448;18.122;2023-03-14T20:09:23;10.17;;10.17;;;;;;;
62702;SPS30;66022;50.448;18.122;2023-03-14T20:13:40;10.17;;10.17;;;;;;;
62702;SPS30;66022;50.448;18.122;2023-03-14T20:17:51;10.17;;10.17;;;;;;;
62702;SPS30;66022;50.448;18.122;2023-03-14T20:22:04;21.85;;20.44;;;;;;;
62702;SPS30;66022;50.448;18.122;2023-03-14T20:26:19;21.85;;20.44;;;;;;;
62702;SPS30;66022;50.448;18.122;2023-03-14T20:30:32;12.15;;11.55;;;;;;;
62702;SPS30;66022;50.448;18.122;2023-03-14T20:34:46;12.15;;11.55;;;;;;;
62702;SPS30;66022;50.448;18.122;2023-03-14T20:39:00;12.15;;11.55;;;;;;;
62702;SPS30;66022;50.448;18.122;2023-03-14T20:43:14;11.85;;11.85;;;;;;;
62702;SPS30;66022;50.448;18.122;2023-03-14T20:47:31;11.85;;11.85;;;;;;;
62702;SPS30;66022;50.448;18.122;2023-03-14T20:51:43;13.08;;12.84;;;;;;;
62702;SPS30;66022;50.448;18.122;2023-03-14T20:55:57;13.08;;12.84;;;;;;;
62702;SPS30;66022;50.448;18.122;2023-03-14T21:00:11;12.26;;12.26;;;;;;;
62702;SPS30;66022;50.448;18.122;2023-03-14T21:04:24;12.26;;12.26;;;;;;;
62702;SPS30;66022;50.448;18.122;2023-03-14T21:08:38;12.26;;12.26;;;;;;;
62702;SPS30;66022;50.448;18.122;2023-03-14T21:21:20;18.32;;16.82;;;;;;;
62702;SPS30;66022;50.448;18.122;2023-03-14T21:25:34;18.32;;16.82;;;;;;;
62702;SPS30;66022;50.448;18.122;2023-03-14T21:29:48;14.51;;14.42;;;;;;;
62702;SPS30;66022;50.448;18.122;2023-03-14T21:34:02;14.51;;14.42;;;;;;;
62702;SPS30;66022;50.448;18.122;2023-03-14T21:38:16;14.51;;14.42;;;;;;;
62702;SPS30;66022;50.448;18.122;2023-03-14T21:42:30;9.47;;8.35;;;;;;;
62702;SPS30;66022;50.448;18.122;2023-03-14T21:46:44;9.47;;8.35;;;;;;;
62702;SPS30;66022;50.448;18.122;2023-03-14T21:50:58;4.38;;4.02;;;;;;;
62702;SPS30;66022;50.448;18.122;2023-03-14T21:55:12;4.38;;4.02;;;;;;;
62702;SPS30;66022;50.448;18.122;2023-03-14T21:59:27;3.81;;3.81;;;;;;;
62702;SPS30;66022;50.448;18.122;2023-03-14T22:03:41;3.81;;3.81;;;;;;;
62702;SPS30;66022;50.448;18.122;2023-03-14T22:07:55;3.81;;3.81;;;;;;;
62702;SPS30;66022;50.448;18.122;2023-03-14T22:16:23;10.86;;9.41;;;;;;;
62702;SPS30;66022;50.448;18.122;2023-03-14T22:20:37;5.44;;4.89;;;;;;;
62702;SPS30;66022;50.448;18.122;2023-03-14T22:24:51;5.44;;4.89;;;;;;;
62702;SPS30;66022;50.448;18.122;2023-03-14T22:29:05;5.44;;4.89;;;;;;;
62702;SPS30;66022;50.448;18.122;2023-03-14T22:33:19;2.31;;2.31;;;;;;;
62702;SPS30;66022;50.448;18.122;2023-03-14T22:37:33;2.31;;2.31;;;;;;;
62702;SPS30;66022;50.448;18.122;2023-03-14T22:41:47;3.41;;3.41;;;;;;;
62702;SPS30;66022;50.448;18.122;2023-03-14T22:46:01;3.41;;3.41;;;;;;;
62702;SPS30;66022;50.448;18.122;2023-03-14T22:50:15;5.00;;4.51;;;;;;;
62702;SPS30;66022;50.448;18.122;2023-03-14T22:54:29;5.00;;4.51;;;;;;;
62702;SPS30;66022;50.448;18.122;2023-03-14T22:58:43;5.00;;4.51;;;;;;;
62702;SPS30;66022;50.448;18.122;2023-03-14T23:02:57;4.92;;4.92;;;;;;;
62702;SPS30;66022;50.448;18.122;2023-03-14T23:07:11;4.92;;4.92;;;;;;;
62702;SPS30;66022;50.448;18.122;2023-03-14T23:11:25;5.05;;5.05;;;;;;;
62702;SPS30;66022;50.448;18.122;2023-03-14T23:15:40;5.05;;5.05;;;;;;;
62702;SPS30;66022;50.448;18.122;2023-03-14T23:19:53;6.85;;6.04;;;;;;;
62702;SPS30;66022;50.448;18.122;2023-03-14T23:24:07;6.85;;6.04;;;;;;;
62702;SPS30;66022;50.448;18.122;2023-03-14T23:28:21;6.85;;6.04;;;;;;;
62702;SPS30;66022;50.448;18.122;2023-03-14T23:32:35;5.10;;4.66;;;;;;;
62702;SPS30;66022;50.448;18.122;2023-03-14T23:36:49;5.10;;4.66;;;;;;;
62702;SPS30;66022;50.448;18.122;2023-03-14T23:41:03;7.06;;6.04;;;;;;;
62702;SPS30;66022;50.448;18.122;2023-03-14T23:45:17;7.06;;6.04;;;;;;;
62702;SPS30;66022;50.448;18.122;2023-03-14T23:49:31;5.63;;5.15;;;;;;;
62702;SPS30;66022;50.448;18.122;2023-03-14T23:53:45;5.63;;5.15;;;;;;;
62702;SPS30;66022;50.448;18.122;2023-03-14T23:57:59;5.63;;5.15;;;;;;;
